Time;durP1;ratioP1;P1;durP2;ratioP2;P2;SDS_P1;SDS_P2;PMS_P1;PMS_P2;Temp;Humidity;BMP_temperature;BMP_pressure;BME280_temperature;BME280_humidity;BME280_pressure;Samples;Min_cycle;Max_cycle;Signal;HPM_P1;HPM_P2
2022/04/07 00:00:43;;;;;;;16.30;6.82;;;;;;;;;;143725;582;47020;-59
2022/04/07 00:03:10;;;;;;;12.00;6.57;;;;;;;;;;143725;587;47010;-60
2022/04/07 00:05:37;;;;;;;10.50;6.70;;;;;;;;;;143728;587;46020;-60
2022/04/07 00:08:05;;;;;;;9.68;6.32;;;;;;;;;;143728;591;46021;-60
2022/04/07 00:10:32;;;;;;;11.60;6.85;;;;;;;;;;143723;620;48020;-60
2022/04/07 00:12:59;;;;;;;9.43;6.37;;;;;;;;;;143723;602;47011;-60
2022/04/07 00:15:27;;;;;;;13.52;6.43;;;;;;;;;;143728;593;46021;-60
2022/04/07 00:17:54;;;;;;;12.13;6.40;;;;;;;;;;143725;614;46020;-60
2022/04/07 00:20:21;;;;;;;9.25;6.12;;;;;;;;;;143723;585;47022;-59
2022/04/07 00:22:49;;;;;;;11.50;6.55;;;;;;;;;;143724;644;47010;-60
2022/04/07 00:25:16;;;;;;;9.95;5.65;;;;;;;;;;143726;587;46020;-60
2022/04/07 00:27:43;;;;;;;14.02;7.95;;;;;;;;;;143727;649;46020;-60
2022/04/07 00:30:13;;;;;;;11.00;7.32;;;;;;;;;;143726;582;47021;-60
2022/04/07 00:32:44;;;;;;;17.30;8.43;;;;;;;;;;143723;603;47010;-60
2022/04/07 00:35:11;;;;;;;13.52;7.47;;;;;;;;;;143728;575;46020;-60
2022/04/07 00:37:39;;;;;;;12.55;8.60;;;;;;;;;;143728;564;46021;-60
2022/04/07 00:40:08;;;;;;;19.35;10.10;;;;;;;;;;143724;639;47022;-60
2022/04/07 00:42:34;;;;;;;15.40;8.93;;;;;;;;;;143725;569;47011;-60
2022/04/07 00:45:04;;;;;;;16.40;8.73;;;;;;;;;;143727;574;46021;-60
2022/04/07 00:47:32;;;;;;;15.50;9.20;;;;;;;;;;143726;571;46020;-60
2022/04/07 00:50:00;;;;;;;16.37;9.30;;;;;;;;;;143726;573;47021;-60
2022/04/07 00:52:28;;;;;;;14.65;9.43;;;;;;;;;;143726;564;47010;-60
2022/04/07 00:54:55;;;;;;;13.05;8.07;;;;;;;;;;143725;585;46019;-60
2022/04/07 00:57:23;;;;;;;13.57;7.53;;;;;;;;;;143728;570;46020;-60
2022/04/07 00:59:50;;;;;;;16.73;8.90;;;;;;;;;;143727;605;47021;-60
2022/04/07 01:02:17;;;;;;;11.70;7.87;;;;;;;;;;143725;575;47010;-60
2022/04/07 01:04:44;;;;;;;16.05;9.02;;;;;;;;;;143726;581;46020;-60
2022/04/07 01:07:12;;;;;;;16.85;9.13;;;;;;;;;;143726;572;46021;-60
2022/04/07 01:09:39;;;;;;;11.60;6.60;;;;;;;;;;143724;583;47022;-60
2022/04/07 01:12:07;;;;;;;11.70;5.87;;;;;;;;;;143724;731;47010;-60
2022/04/07 01:14:34;;;;;;;16.08;7.50;;;;;;;;;;143725;590;46021;-60
2022/04/07 01:17:01;;;;;;;14.68;7.70;;;;;;;;;;143728;578;46020;-60
2022/04/07 01:19:28;;;;;;;15.30;8.10;;;;;;;;;;143724;579;47022;-60
2022/04/07 01:21:55;;;;;;;8.50;6.35;;;;;;;;;;143725;592;47010;-60
2022/04/07 01:24:30;;;;;;;12.77;6.78;;;;;;;;;;143727;582;46020;-60
2022/04/07 01:26:57;;;;;;;15.27;8.00;;;;;;;;;;143728;569;46020;-60
2022/04/07 01:29:25;;;;;;;13.57;8.55;;;;;;;;;;143726;587;47028;-60
2022/04/07 01:31:52;;;;;;;12.50;8.52;;;;;;;;;;143724;607;47010;-60
2022/04/07 01:34:20;;;;;;;15.48;9.25;;;;;;;;;;143725;746;46020;-60
2022/04/07 01:36:49;;;;;;;17.02;9.70;;;;;;;;;;143727;564;46021;-60
2022/04/07 01:39:21;;;;;;;15.05;6.93;;;;;;;;;;143725;585;47020;-60
2022/04/07 01:41:49;;;;;;;14.40;8.90;;;;;;;;;;143728;618;47011;-60
2022/04/07 01:44:17;;;;;;;12.70;6.90;;;;;;;;;;143725;588;46021;-60
2022/04/07 01:46:44;;;;;;;12.75;8.38;;;;;;;;;;143728;642;46020;-60
2022/04/07 01:49:11;;;;;;;15.13;7.32;;;;;;;;;;143723;586;47022;-60
2022/04/07 01:51:38;;;;;;;15.18;8.00;;;;;;;;;;143724;617;47010;-60
2022/04/07 01:54:11;;;;;;;12.27;8.73;;;;;;;;;;143725;676;46039;-60
2022/04/07 01:56:40;;;;;;;13.82;9.13;;;;;;;;;;143727;603;46020;-60
2022/04/07 01:59:08;;;;;;;15.95;8.88;;;;;;;;;;143724;581;47021;-60
2022/04/07 02:01:36;;;;;;;11.15;6.80;;;;;;;;;;143725;709;47012;-60
2022/04/07 02:04:04;;;;;;;16.98;8.20;;;;;;;;;;143726;569;46020;-60
2022/04/07 02:06:31;;;;;;;19.90;9.57;;;;;;;;;;143728;570;46021;-60
2022/04/07 02:08:58;;;;;;;13.48;8.60;;;;;;;;;;143724;597;47028;-60
2022/04/07 02:11:25;;;;;;;15.68;9.15;;;;;;;;;;143724;570;47012;-60
2022/04/07 02:13:53;;;;;;;15.50;8.60;;;;;;;;;;143726;576;46021;-60
2022/04/07 02:16:22;;;;;;;17.45;9.48;;;;;;;;;;143727;697;46020;-60
2022/04/07 02:18:49;;;;;;;16.45;8.00;;;;;;;;;;143724;680;47020;-60
2022/04/07 02:21:16;;;;;;;18.48;9.32;;;;;;;;;;143724;569;47013;-60
2022/04/07 02:23:43;;;;;;;14.10;7.57;;;;;;;;;;143727;583;46020;-60
2022/04/07 02:26:14;;;;;;;14.68;8.07;;;;;;;;;;143726;610;46020;-60
2022/04/07 02:28:41;;;;;;;14.55;7.35;;;;;;;;;;143724;567;47021;-60
2022/04/07 02:31:09;;;;;;;12.55;7.97;;;;;;;;;;143724;634;47012;-60
2022/04/07 02:33:37;;;;;;;12.23;7.57;;;;;;;;;;143728;570;46020;-60
2022/04/07 02:36:05;;;;;;;15.68;8.30;;;;;;;;;;143726;579;46021;-60
2022/04/07 02:38:32;;;;;;;11.80;7.25;;;;;;;;;;143723;583;47022;-60
2022/04/07 02:40:59;;;;;;;12.93;7.53;;;;;;;;;;143726;565;47012;-60
2022/04/07 02:43:27;;;;;;;14.48;6.68;;;;;;;;;;143727;571;46020;-60
2022/04/07 02:45:54;;;;;;;11.60;6.97;;;;;;;;;;143727;592;46020;-60
2022/04/07 02:48:21;;;;;;;14.93;8.75;;;;;;;;;;143725;577;47022;-60
2022/04/07 02:50:48;;;;;;;18.87;8.75;;;;;;;;;;143723;613;47012;-60
2022/04/07 02:53:16;;;;;;;15.23;8.07;;;;;;;;;;143724;626;46020;-60
2022/04/07 02:55:42;;;;;;;18.12;8.18;;;;;;;;;;143727;609;46020;-60
2022/04/07 02:58:09;;;;;;;14.55;7.78;;;;;;;;;;143726;623;47021;-60
2022/04/07 03:00:36;;;;;;;14.93;7.07;;;;;;;;;;143724;646;47012;-59
2022/04/07 03:03:04;;;;;;;14.95;7.87;;;;;;;;;;143726;691;46020;-60
2022/04/07 03:05:30;;;;;;;10.48;6.70;;;;;;;;;;143727;569;46021;-60
2022/04/07 03:07:57;;;;;;;14.43;8.75;;;;;;;;;;143724;653;47023;-60
2022/04/07 03:10:24;;;;;;;10.90;7.40;;;;;;;;;;143725;573;47012;-60
2022/04/07 03:12:51;;;;;;;16.42;8.95;;;;;;;;;;143726;564;46020;-60
2022/04/07 03:15:19;;;;;;;14.70;8.63;;;;;;;;;;143726;564;46020;-60
2022/04/07 03:17:46;;;;;;;26.10;10.23;;;;;;;;;;143724;575;47020;-60
2022/04/07 03:20:12;;;;;;;13.90;9.00;;;;;;;;;;143723;585;47013;-60
2022/04/07 03:22:39;;;;;;;10.95;7.32;;;;;;;;;;143728;583;46020;-60
2022/04/07 03:25:07;;;;;;;19.10;9.50;;;;;;;;;;143728;563;46020;-60
2022/04/07 03:27:34;;;;;;;18.08;9.00;;;;;;;;;;143726;570;47028;-60
2022/04/07 03:30:01;;;;;;;24.50;10.40;;;;;;;;;;143726;631;47012;-60
2022/04/07 03:32:28;;;;;;;22.80;10.63;;;;;;;;;;143725;614;46020;-60
2022/04/07 03:34:55;;;;;;;14.32;8.55;;;;;;;;;;143727;569;46020;-60
2022/04/07 03:37:23;;;;;;;15.05;8.32;;;;;;;;;;143724;604;47029;-60
2022/04/07 03:39:50;;;;;;;13.80;8.38;;;;;;;;;;143724;581;47012;-60
2022/04/07 03:42:17;;;;;;;21.37;7.75;;;;;;;;;;143723;599;46020;-60
2022/04/07 03:44:44;;;;;;;11.07;7.60;;;;;;;;;;143729;582;46021;-60
2022/04/07 03:47:11;;;;;;;13.27;7.80;;;;;;;;;;143723;605;47020;-60
2022/04/07 03:49:39;;;;;;;17.75;10.05;;;;;;;;;;143726;581;47012;-59
2022/04/07 03:52:06;;;;;;;10.70;6.78;;;;;;;;;;143727;600;46021;-59
2022/04/07 03:54:33;;;;;;;12.02;7.05;;;;;;;;;;143728;591;46020;-60
2022/04/07 03:57:01;;;;;;;11.98;6.87;;;;;;;;;;143725;583;47021;-59
2022/04/07 03:59:29;;;;;;;14.85;7.18;;;;;;;;;;143723;575;47012;-60
2022/04/07 04:01:56;;;;;;;17.40;7.32;;;;;;;;;;143727;564;46020;-60
2022/04/07 04:04:24;;;;;;;13.93;8.88;;;;;;;;;;143728;600;46020;-60
2022/04/07 04:06:51;;;;;;;15.75;7.30;;;;;;;;;;143723;591;47021;-60
2022/04/07 04:09:18;;;;;;;16.35;8.73;;;;;;;;;;143724;638;47013;-61
2022/04/07 04:11:45;;;;;;;19.25;9.15;;;;;;;;;;143725;585;47012;-60
2022/04/07 04:14:12;;;;;;;22.52;9.98;;;;;;;;;;143727;611;46021;-60
2022/04/07 04:16:39;;;;;;;23.38;9.63;;;;;;;;;;143720;593;50020;-60
2022/04/07 04:19:06;;;;;;;14.15;7.35;;;;;;;;;;143724;572;47013;-60
2022/04/07 04:21:33;;;;;;;18.27;9.02;;;;;;;;;;143727;576;46021;-60
2022/04/07 04:24:00;;;;;;;22.92;10.63;;;;;;;;;;143730;581;46018;-62
2022/04/07 04:26:27;;;;;;;25.40;11.18;;;;;;;;;;143724;581;47021;-60
2022/04/07 04:28:54;;;;;;;18.67;9.60;;;;;;;;;;143724;610;47012;-60
2022/04/07 04:31:24;;;;;;;24.70;10.38;;;;;;;;;;143726;621;46020;-60
2022/04/07 04:33:52;;;;;;;19.70;10.98;;;;;;;;;;143728;597;46020;-60
2022/04/07 04:36:19;;;;;;;18.30;10.57;;;;;;;;;;143725;595;47020;-60
2022/04/07 04:38:46;;;;;;;17.27;9.77;;;;;;;;;;143723;617;47012;-60
2022/04/07 04:41:13;;;;;;;15.52;8.68;;;;;;;;;;143727;585;46020;-60
2022/04/07 04:43:40;;;;;;;16.48;9.70;;;;;;;;;;143728;575;46021;-60
2022/04/07 04:46:08;;;;;;;16.33;10.48;;;;;;;;;;143724;611;47022;-59
2022/04/07 04:48:38;;;;;;;21.95;10.98;;;;;;;;;;143725;665;47013;-60
2022/04/07 04:51:05;;;;;;;17.85;10.85;;;;;;;;;;143725;573;46021;-60
2022/04/07 04:53:33;;;;;;;23.12;11.12;;;;;;;;;;143728;569;46020;-60
2022/04/07 04:56:00;;;;;;;23.20;10.30;;;;;;;;;;143724;712;47022;-60
2022/04/07 04:58:26;;;;;;;22.13;12.02;;;;;;;;;;143723;649;47012;-60
2022/04/07 05:00:53;;;;;;;12.70;7.80;;;;;;;;;;143726;622;46020;-59
2022/04/07 05:03:21;;;;;;;17.83;9.63;;;;;;;;;;143727;700;46020;-59
2022/04/07 05:05:48;;;;;;;20.55;10.68;;;;;;;;;;143722;585;47023;-59
2022/04/07 05:08:15;;;;;;;21.15;11.30;;;;;;;;;;143724;602;47012;-59
2022/04/07 05:10:42;;;;;;;24.90;11.70;;;;;;;;;;143725;588;46020;-60
2022/04/07 05:13:09;;;;;;;24.30;10.30;;;;;;;;;;143727;711;47012;-60
2022/04/07 05:15:39;;;;;;;34.53;13.23;;;;;;;;;;143724;570;47020;-60
2022/04/07 05:18:06;;;;;;;22.75;11.07;;;;;;;;;;143724;589;47012;-60
2022/04/07 05:20:33;;;;;;;19.17;11.25;;;;;;;;;;143725;573;46021;-59
2022/04/07 05:23:00;;;;;;;20.65;10.55;;;;;;;;;;143729;584;46020;-60
2022/04/07 05:25:27;;;;;;;15.57;9.98;;;;;;;;;;143726;591;47020;-59
2022/04/07 05:27:54;;;;;;;16.10;9.45;;;;;;;;;;143726;633;47012;-60
2022/04/07 05:30:22;;;;;;;21.45;10.65;;;;;;;;;;143726;564;46020;-59
2022/04/07 05:32:49;;;;;;;20.62;10.13;;;;;;;;;;143726;587;46020;-60
2022/04/07 05:35:16;;;;;;;28.00;12.95;;;;;;;;;;143725;657;47021;-59
2022/04/07 05:37:43;;;;;;;39.72;18.25;;;;;;;;;;143725;569;47012;-60
2022/04/07 05:40:11;;;;;;;31.90;16.87;;;;;;;;;;143725;574;46020;-59
2022/04/07 05:42:39;;;;;;;22.58;13.75;;;;;;;;;;143729;712;46020;-60
2022/04/07 05:45:06;;;;;;;19.12;11.75;;;;;;;;;;143725;598;47022;-59
2022/04/07 05:47:42;;;;;;;25.33;11.70;;;;;;;;;;143727;588;46020;-59
2022/04/07 05:50:10;;;;;;;24.08;10.55;;;;;;;;;;143726;582;46021;-60
2022/04/07 05:52:37;;;;;;;23.38;9.98;;;;;;;;;;143728;648;46020;-60
2022/04/07 05:55:05;;;;;;;22.52;10.10;;;;;;;;;;143726;599;47021;-59
2022/04/07 05:57:33;;;;;;;14.32;7.12;;;;;;;;;;143725;611;47013;-59
2022/04/07 06:00:13;;;;;;;23.20;7.28;;;;;;;;;;143726;564;46024;-61
2022/04/07 06:02:43;;;;;;;13.18;6.40;;;;;;;;;;143725;600;47013;-61
2022/04/07 06:05:11;;;;;;;14.98;6.05;;;;;;;;;;143727;610;47021;-59
2022/04/07 06:07:39;;;;;;;20.52;5.28;;;;;;;;;;143726;579;47012;-59
2022/04/07 06:10:06;;;;;;;12.40;5.47;;;;;;;;;;143723;613;46020;-59
2022/04/07 06:12:33;;;;;;;14.65;5.43;;;;;;;;;;143727;604;46021;-59
2022/04/07 06:15:00;;;;;;;11.00;5.68;;;;;;;;;;143724;573;47022;-59
2022/04/07 06:17:41;;;;;;;12.20;5.55;;;;;;;;;;143724;600;47012;-60
2022/04/07 06:20:10;;;;;;;18.67;5.78;;;;;;;;;;143727;593;46021;-59
2022/04/07 06:22:37;;;;;;;17.92;6.05;;;;;;;;;;143727;619;47020;-58
2022/04/07 06:25:05;;;;;;;13.95;5.93;;;;;;;;;;143725;571;47022;-59
2022/04/07 06:27:43;;;;;;;20.77;6.97;;;;;;;;;;143726;591;47012;-59
2022/04/07 06:30:15;;;;;;;22.20;6.43;;;;;;;;;;143727;632;46020;-60
2022/04/07 06:32:42;;;;;;;18.30;6.75;;;;;;;;;;143729;564;46020;-60
2022/04/07 06:35:11;;;;;;;13.75;7.25;;;;;;;;;;143725;728;47023;-58
2022/04/07 06:37:55;;;;;;;16.83;6.50;;;;;;;;;;143726;583;47012;-58
2022/04/07 06:40:27;;;;;;;12.93;6.37;;;;;;;;;;143728;694;46020;-59
2022/04/07 06:42:56;;;;;;;19.98;7.20;;;;;;;;;;143728;583;46021;-59
2022/04/07 06:45:23;;;;;;;22.62;6.68;;;;;;;;;;143725;635;48020;-58
2022/04/07 06:47:50;;;;;;;19.23;8.25;;;;;;;;;;143723;744;47012;-59
2022/04/07 06:50:19;;;;;;;16.98;7.60;;;;;;;;;;143726;744;46021;-59
2022/04/07 06:52:46;;;;;;;15.27;6.32;;;;;;;;;;143727;584;46020;-59
2022/04/07 06:55:14;;;;;;;23.20;10.38;;;;;;;;;;143725;595;47021;-58
2022/04/07 06:57:57;;;;;;;17.15;7.60;;;;;;;;;;143724;733;47012;-59
2022/04/07 07:00:29;;;;;;;14.40;5.55;;;;;;;;;;143725;582;46020;-59
2022/04/07 07:02:57;;;;;;;21.10;7.75;;;;;;;;;;143728;658;46021;-58
2022/04/07 07:05:25;;;;;;;16.90;9.52;;;;;;;;;;143726;617;47023;-58
2022/04/07 07:07:53;;;;;;;30.30;9.77;;;;;;;;;;143727;629;47012;-58
2022/04/07 07:10:25;;;;;;;30.15;9.82;;;;;;;;;;143728;597;46020;-58
2022/04/07 07:12:53;;;;;;;24.95;10.85;;;;;;;;;;143728;589;46021;-58
2022/04/07 07:15:21;;;;;;;22.02;10.75;;;;;;;;;;143727;580;47020;-58
2022/04/07 07:17:48;;;;;;;18.15;8.85;;;;;;;;;;143725;606;47013;-59
2022/04/07 07:20:15;;;;;;;24.73;11.18;;;;;;;;;;143725;596;46021;-59
2022/04/07 07:22:43;;;;;;;21.65;10.45;;;;;;;;;;143728;575;46020;-58
2022/04/07 07:25:10;;;;;;;15.45;8.43;;;;;;;;;;143725;593;47021;-58
2022/04/07 07:27:42;;;;;;;21.17;9.30;;;;;;;;;;143726;586;47012;-58
2022/04/07 07:30:10;;;;;;;25.25;9.25;;;;;;;;;;143730;625;46020;-59
2022/04/07 07:32:38;;;;;;;17.55;9.00;;;;;;;;;;143730;567;46020;-58
2022/04/07 07:35:06;;;;;;;23.52;7.75;;;;;;;;;;143727;602;47020;-58
2022/04/07 07:37:35;;;;;;;16.77;7.60;;;;;;;;;;143727;624;47012;-59
2022/04/07 07:40:07;;;;;;;22.42;7.12;;;;;;;;;;143727;596;46020;-58
2022/04/07 07:42:36;;;;;;;15.85;6.90;;;;;;;;;;143730;567;46021;-58
2022/04/07 07:45:04;;;;;;;18.25;7.90;;;;;;;;;;143726;565;47022;-58
2022/04/07 07:47:31;;;;;;;19.00;7.43;;;;;;;;;;143725;585;47012;-58
2022/04/07 07:49:58;;;;;;;20.30;8.10;;;;;;;;;;143727;606;46021;-58
2022/04/07 07:52:25;;;;;;;20.25;7.72;;;;;;;;;;143730;611;46020;-58
2022/04/07 07:54:52;;;;;;;26.10;7.90;;;;;;;;;;143726;604;47021;-59
2022/04/07 07:57:20;;;;;;;17.30;7.30;;;;;;;;;;143726;608;47012;-59
2022/04/07 07:59:47;;;;;;;18.17;7.30;;;;;;;;;;143726;601;46020;-58
2022/04/07 08:02:14;;;;;;;21.85;7.30;;;;;;;;;;143730;575;46020;-58
2022/04/07 08:04:41;;;;;;;23.55;7.18;;;;;;;;;;143724;591;47029;-59
2022/04/07 08:07:08;;;;;;;22.58;6.97;;;;;;;;;;143727;603;47012;-58
2022/04/07 08:09:35;;;;;;;17.10;6.22;;;;;;;;;;143729;589;46020;-59
2022/04/07 08:12:02;;;;;;;22.42;7.32;;;;;;;;;;143729;573;46020;-58
2022/04/07 08:14:30;;;;;;;23.23;7.78;;;;;;;;;;143729;583;46022;-58
2022/04/07 08:16:57;;;;;;;21.87;6.93;;;;;;;;;;143727;578;47012;-59
2022/04/07 08:19:24;;;;;;;29.80;7.30;;;;;;;;;;143728;622;46021;-58
2022/04/07 08:21:51;;;;;;;25.48;8.13;;;;;;;;;;143728;608;46020;-58
2022/04/07 08:24:22;;;;;;;21.37;8.15;;;;;;;;;;143725;573;47021;-58
2022/04/07 08:26:49;;;;;;;23.62;8.68;;;;;;;;;;143727;619;47012;-59
2022/04/07 08:29:16;;;;;;;33.22;10.40;;;;;;;;;;143729;666;46020;-58
2022/04/07 08:31:43;;;;;;;23.75;10.00;;;;;;;;;;143728;579;46020;-59
2022/04/07 08:34:10;;;;;;;24.95;9.85;;;;;;;;;;143727;609;47020;-59
2022/04/07 08:36:39;;;;;;;22.98;9.52;;;;;;;;;;143727;742;47012;-59
2022/04/07 08:39:06;;;;;;;20.37;9.27;;;;;;;;;;143726;573;46020;-59
2022/04/07 08:41:34;;;;;;;22.17;7.53;;;;;;;;;;143728;651;47012;-59
2022/04/07 08:44:03;;;;;;;22.25;8.27;;;;;;;;;;143725;577;48020;-59
2022/04/07 08:46:32;;;;;;;32.60;8.75;;;;;;;;;;143727;626;47013;-59
2022/04/07 08:49:03;;;;;;;34.05;8.90;;;;;;;;;;143726;593;46021;-59
2022/04/07 08:51:31;;;;;;;27.10;6.85;;;;;;;;;;143728;564;47012;-59
2022/04/07 08:53:59;;;;;;;27.58;7.70;;;;;;;;;;143726;586;47021;-59
2022/04/07 08:56:26;;;;;;;21.35;7.78;;;;;;;;;;143726;597;47012;-59
2022/04/07 08:58:56;;;;;;;25.80;8.32;;;;;;;;;;143725;589;48014;-59
2022/04/07 09:01:23;;;;;;;32.25;8.02;;;;;;;;;;143730;600;46022;-59
2022/04/07 09:03:50;;;;;;;23.50;7.10;;;;;;;;;;143726;576;47023;-59
2022/04/07 09:06:21;;;;;;;42.85;8.05;;;;;;;;;;143726;610;47012;-60
2022/04/07 09:08:48;;;;;;;23.55;7.47;;;;;;;;;;143729;585;46020;-59
2022/04/07 09:11:19;;;;;;;31.73;9.15;;;;;;;;;;143728;732;47012;-59
2022/04/07 09:13:46;;;;;;;36.05;10.60;;;;;;;;;;143727;597;47020;-60
2022/04/07 09:16:15;;;;;;;38.42;11.57;;;;;;;;;;143726;605;47013;-60
2022/04/07 09:18:45;;;;;;;23.52;8.43;;;;;;;;;;143729;610;46021;-60
2022/04/07 09:21:25;;;;;;;27.67;8.02;;;;;;;;;;143729;661;46020;-60
2022/04/07 09:23:54;;;;;;;36.65;8.68;;;;;;;;;;143726;601;47021;-60
2022/04/07 09:26:21;;;;;;;24.58;8.13;;;;;;;;;;143725;574;47012;-60
2022/04/07 09:28:49;;;;;;;25.98;9.07;;;;;;;;;;143729;569;46020;-61
2022/04/07 09:31:17;;;;;;;24.77;8.93;;;;;;;;;;143729;583;47013;-60
2022/04/07 09:33:53;;;;;;;28.00;8.48;;;;;;;;;;143726;592;47020;-60
2022/04/07 09:36:21;;;;;;;27.23;7.70;;;;;;;;;;143726;573;47012;-61
2022/04/07 09:38:53;;;;;;;24.87;7.30;;;;;;;;;;143726;588;46020;-60
2022/04/07 09:41:20;;;;;;;24.90;7.30;;;;;;;;;;143729;574;46021;-61
2022/04/07 09:44:00;;;;;;;18.17;7.80;;;;;;;;;;143726;636;47020;-60
2022/04/07 09:46:32;;;;;;;41.00;8.15;;;;;;;;;;143725;589;47013;-60
2022/04/07 09:49:19;;;;;;;29.73;7.97;;;;;;;;;;143730;620;46021;-60
2022/04/07 09:51:47;;;;;;;24.45;8.07;;;;;;;;;;143726;640;47020;-60
2022/04/07 09:54:16;;;;;;;25.88;8.63;;;;;;;;;;143725;566;47022;-61
2022/04/07 09:56:49;;;;;;;32.33;9.52;;;;;;;;;;143728;587;47012;-61
2022/04/07 09:59:19;;;;;;;28.77;8.75;;;;;;;;;;143729;599;46020;-60
2022/04/07 10:01:49;;;;;;;21.70;8.07;;;;;;;;;;143730;630;46020;-60
2022/04/07 10:04:19;;;;;;;24.60;8.23;;;;;;;;;;143727;605;47034;-61
2022/04/07 10:06:47;;;;;;;22.62;8.05;;;;;;;;;;143727;578;47012;-61
2022/04/07 10:09:17;;;;;;;27.13;9.82;;;;;;;;;;143728;621;46020;-60
2022/04/07 10:11:44;;;;;;;23.90;8.95;;;;;;;;;;143731;589;46021;-61
2022/04/07 10:14:14;;;;;;;23.48;9.90;;;;;;;;;;143727;592;47045;-61
2022/04/07 10:16:41;;;;;;;30.48;9.80;;;;;;;;;;143728;787;47012;-61
2022/04/07 10:19:20;;;;;;;23.52;7.80;;;;;;;;;;143727;676;46021;-61
2022/04/07 10:22:08;;;;;;;16.42;6.97;;;;;;;;;;143729;778;46020;-62
2022/04/07 10:24:49;;;;;;;23.30;8.82;;;;;;;;;;143726;836;47022;-61
2022/04/07 10:27:21;;;;;;;21.33;8.27;;;;;;;;;;143724;732;47012;-62
2022/04/07 10:30:11;;;;;;;27.20;7.65;;;;;;;;;;143728;605;46020;-62
2022/04/07 10:32:43;;;;;;;18.15;7.05;;;;;;;;;;143730;569;46021;-62
2022/04/07 10:35:28;;;;;;;21.65;5.60;;;;;;;;;;143727;644;47029;-63
2022/04/07 10:37:55;;;;;;;23.52;9.70;;;;;;;;;;143728;635;46013;-64
2022/04/07 10:40:50;;;;;;;19.48;7.78;;;;;;;;;;143728;629;46021;-65
2022/04/07 10:43:22;;;;;;;15.70;6.47;;;;;;;;;;143728;725;46022;-63
2022/04/07 10:46:08;;;;;;;15.00;5.78;;;;;;;;;;143726;594;47022;-62
2022/04/07 10:49:03;;;;;;;15.57;6.80;;;;;;;;;;143727;639;47012;-61
2022/04/07 10:51:53;;;;;;;17.58;6.50;;;;;;;;;;143728;641;46020;-61
2022/04/07 10:54:21;;;;;;;14.55;6.32;;;;;;;;;;143730;653;46020;-61
2022/04/07 10:56:56;;;;;;;15.27;5.80;;;;;;;;;;143726;625;47022;-60
2022/04/07 10:59:29;;;;;;;14.18;6.15;;;;;;;;;;143724;592;47012;-60
2022/04/07 11:02:07;;;;;;;18.40;6.18;;;;;;;;;;143728;570;46020;-61
2022/04/07 11:04:42;;;;;;;13.38;5.97;;;;;;;;;;143728;607;46020;-60
2022/04/07 11:07:18;;;;;;;14.57;6.32;;;;;;;;;;143727;569;47020;-61
2022/04/07 11:10:11;;;;;;;13.80;5.55;;;;;;;;;;143727;608;47012;-61
2022/04/07 11:12:43;;;;;;;8.95;4.68;;;;;;;;;;143727;577;46020;-62
2022/04/07 11:15:57;;;;;;;14.43;5.47;;;;;;;;;;143729;570;46020;-60
2022/04/07 11:18:47;;;;;;;12.37;4.35;;;;;;;;;;143725;857;47023;-60
2022/04/07 11:21:14;;;;;;;10.00;4.43;;;;;;;;;;143723;566;47012;-60
2022/04/07 11:24:07;;;;;;;16.27;6.95;;;;;;;;;;143729;573;46020;-60
2022/04/07 11:26:35;;;;;;;10.00;4.53;;;;;;;;;;143729;607;47012;-60
2022/04/07 11:29:12;;;;;;;11.93;5.37;;;;;;;;;;143727;569;47020;-60
2022/04/07 11:31:46;;;;;;;14.02;7.30;;;;;;;;;;143726;623;47012;-59
2022/04/07 11:34:40;;;;;;;19.02;8.73;;;;;;;;;;143728;565;46020;-60
2022/04/07 11:37:12;;;;;;;14.63;5.22;;;;;;;;;;143729;617;46020;-61
2022/04/07 11:39:40;;;;;;;13.95;5.20;;;;;;;;;;143726;612;47023;-60
2022/04/07 11:42:07;;;;;;;13.25;6.55;;;;;;;;;;143730;596;46012;-60
2022/04/07 11:44:34;;;;;;;14.93;8.07;;;;;;;;;;143728;576;46020;-59
2022/04/07 11:47:02;;;;;;;10.63;4.93;;;;;;;;;;143729;591;47012;-60
2022/04/07 11:49:30;;;;;;;8.73;4.07;;;;;;;;;;143726;625;47020;-60
2022/04/07 11:51:57;;;;;;;9.68;4.68;;;;;;;;;;143726;586;47012;-60
2022/04/07 11:54:24;;;;;;;9.27;4.18;;;;;;;;;;143728;716;46021;-59
2022/04/07 11:56:52;;;;;;;15.57;5.90;;;;;;;;;;143729;583;47027;-59
2022/04/07 11:59:20;;;;;;;14.52;6.65;;;;;;;;;;143725;605;47020;-59
2022/04/07 12:01:47;;;;;;;12.18;6.20;;;;;;;;;;143725;594;47013;-59
2022/04/07 12:04:15;;;;;;;16.67;6.45;;;;;;;;;;143726;592;46020;-59
2022/04/07 12:06:44;;;;;;;14.30;6.97;;;;;;;;;;143729;565;46020;-59
2022/04/07 12:09:11;;;;;;;11.98;5.78;;;;;;;;;;143729;579;46022;-60
2022/04/07 12:11:40;;;;;;;11.52;3.72;;;;;;;;;;143722;577;47012;-59
2022/04/07 12:14:10;;;;;;;9.50;4.18;;;;;;;;;;143723;565;46020;-60
2022/04/07 12:16:45;;;;;;;9.93;4.90;;;;;;;;;;143729;594;46020;-59
2022/04/07 12:19:12;;;;;;;10.27;4.47;;;;;;;;;;143725;580;47020;-60
2022/04/07 12:21:53;;;;;;;12.60;5.43;;;;;;;;;;143722;564;47012;-60
2022/04/07 12:24:21;;;;;;;9.90;4.00;;;;;;;;;;143728;572;46021;-59
2022/04/07 12:26:49;;;;;;;11.12;4.25;;;;;;;;;;143728;584;46020;-60
2022/04/07 12:29:18;;;;;;;11.15;5.45;;;;;;;;;;143723;620;47020;-60
2022/04/07 12:31:46;;;;;;;14.13;5.47;;;;;;;;;;143723;566;47012;-60
2022/04/07 12:34:16;;;;;;;9.02;3.72;;;;;;;;;;143727;581;46020;-62
2022/04/07 12:36:43;;;;;;;9.85;4.78;;;;;;;;;;143729;586;46020;-63
2022/04/07 12:39:18;;;;;;;9.80;3.20;;;;;;;;;;143723;636;47039;-63
2022/04/07 12:41:46;;;;;;;;;;;;;;;;;;143728;978;47012;-64
2022/04/07 12:44:43;;;;;;;11.45;3.05;;;;;;;;;;143732;599;46018;-63
2022/04/07 12:47:15;;;;;;;9.68;3.30;;;;;;;;;;143726;608;46025;-62
2022/04/07 12:49:55;;;;;;;11.52;3.58;;;;;;;;;;143724;610;47027;-63
2022/04/07 12:52:32;;;;;;;12.07;3.70;;;;;;;;;;143722;634;47013;-63
2022/04/07 12:55:02;;;;;;;14.13;3.85;;;;;;;;;;143726;588;46019;-64
2022/04/07 12:57:40;;;;;;;14.07;3.78;;;;;;;;;;143722;585;46022;-63
2022/04/07 13:00:10;;;;;;;7.70;3.78;;;;;;;;;;143724;570;47020;-62
2022/04/07 13:02:48;;;;;;;17.40;4.53;;;;;;;;;;143725;578;47012;-64
2022/04/07 13:05:21;;;;;;;11.10;3.25;;;;;;;;;;143726;587;46018;-64
2022/04/07 13:07:48;;;;;;;15.18;4.00;;;;;;;;;;143728;627;46022;-64
2022/04/07 13:10:15;;;;;;;10.43;3.65;;;;;;;;;;143725;564;47018;-62
2022/04/07 13:12:42;;;;;;;11.43;4.00;;;;;;;;;;143723;583;47012;-62
2022/04/07 13:15:09;;;;;;;12.73;3.47;;;;;;;;;;143725;638;46018;-63
2022/04/07 13:17:36;;;;;;;13.25;3.67;;;;;;;;;;143725;572;47023;-64
2022/04/07 13:20:04;;;;;;;11.05;3.47;;;;;;;;;;143724;574;47018;-63
2022/04/07 13:22:31;;;;;;;8.20;3.33;;;;;;;;;;143724;569;47013;-63
2022/04/07 13:24:59;;;;;;;9.15;3.35;;;;;;;;;;143725;583;46018;-62
2022/04/07 13:27:26;;;;;;;8.45;3.95;;;;;;;;;;143725;706;47014;-64
2022/04/07 13:29:53;;;;;;;10.20;4.32;;;;;;;;;;143724;581;47019;-63
2022/04/07 13:32:23;;;;;;;15.70;4.62;;;;;;;;;;143723;588;47012;-63
2022/04/07 13:34:51;;;;;;;12.60;3.83;;;;;;;;;;143725;565;46018;-63
2022/04/07 13:37:18;;;;;;;11.77;3.35;;;;;;;;;;143726;626;46022;-63
2022/04/07 13:39:45;;;;;;;10.48;3.92;;;;;;;;;;143725;564;47018;-62
2022/04/07 13:42:12;;;;;;;11.95;3.65;;;;;;;;;;143724;569;47012;-63
2022/04/07 13:44:39;;;;;;;17.33;3.72;;;;;;;;;;143725;631;46018;-63
2022/04/07 13:47:07;;;;;;;10.82;4.07;;;;;;;;;;143727;569;46023;-63
2022/04/07 13:49:34;;;;;;;10.52;3.67;;;;;;;;;;143723;612;47018;-63
2022/04/07 13:52:01;;;;;;;12.70;3.62;;;;;;;;;;143723;611;47013;-63
2022/04/07 13:54:29;;;;;;;17.12;4.32;;;;;;;;;;143726;570;46019;-63
2022/04/07 13:56:56;;;;;;;9.52;2.65;;;;;;;;;;143727;683;46022;-64
2022/04/07 13:59:23;;;;;;;12.35;3.05;;;;;;;;;;143726;606;47019;-63
2022/04/07 14:01:50;;;;;;;11.40;3.60;;;;;;;;;;143725;610;47012;-63
2022/04/07 14:04:18;;;;;;;11.32;3.25;;;;;;;;;;143727;580;46018;-62
2022/04/07 14:06:45;;;;;;;12.23;3.10;;;;;;;;;;143727;564;46022;-64
2022/04/07 14:09:14;;;;;;;5.97;2.70;;;;;;;;;;143726;624;47027;-64
2022/04/07 14:11:41;;;;;;;10.23;3.90;;;;;;;;;;143724;565;47012;-63
2022/04/07 14:14:08;;;;;;;10.38;3.47;;;;;;;;;;143727;564;46018;-62
2022/04/07 14:16:35;;;;;;;14.35;3.62;;;;;;;;;;143727;606;46023;-62
2022/04/07 14:19:03;;;;;;;7.95;3.45;;;;;;;;;;143725;574;47018;-62
2022/04/07 14:21:31;;;;;;;15.05;3.62;;;;;;;;;;143725;605;47012;-62
2022/04/07 14:23:58;;;;;;;8.32;2.67;;;;;;;;;;143726;594;46019;-64
2022/04/07 14:26:26;;;;;;;6.60;3.12;;;;;;;;;;143728;614;46022;-62
2022/04/07 14:28:53;;;;;;;9.73;3.42;;;;;;;;;;143726;631;47018;-62
2022/04/07 14:31:20;;;;;;;8.82;2.75;;;;;;;;;;143724;577;47012;-64
2022/04/07 14:33:47;;;;;;;11.50;2.72;;;;;;;;;;143723;633;46018;-62
2022/04/07 14:36:14;;;;;;;9.20;2.65;;;;;;;;;;143728;665;46022;-62
2022/04/07 14:38:42;;;;;;;10.60;2.75;;;;;;;;;;143726;569;47018;-63
2022/04/07 14:41:09;;;;;;;4.22;1.98;;;;;;;;;;143723;583;47022;-65
2022/04/07 14:43:36;;;;;;;9.07;2.20;;;;;;;;;;143726;576;46018;-63